Time;durP1;ratioP1;P1;durP2;ratioP2;P2;SDS_P1;SDS_P2;PMS_P1;PMS_P2;Temp;Humidity;BMP_temperature;BMP_pressure;BME280_temperature;BME280_humidity;BME280_pressure;Samples;Min_cycle;Max_cycle;Signal;HPM_P1;HPM_P2
2023/09/27 00:01:34;;;;;;;;;8.50;8.50;;;;;;;;5126388;27;8792;-86
2023/09/27 00:03:59;;;;;;;;;7.25;7.00;;;;;;;;5121150;28;9074;-87
2023/09/27 00:06:24;;;;;;;;;8.75;8.50;;;;;;;;5122625;27;8789;-86
2023/09/27 00:08:50;;;;;;;;;9.25;9.25;;;;;;;;5139179;27;8820;-86
2023/09/27 00:11:15;;;;;;;;;10.75;9.00;;;;;;;;5145347;27;8768;-86
2023/09/27 00:13:40;;;;;;;;;8.50;7.75;;;;;;;;5147123;27;8777;-86
2023/09/27 00:16:05;;;;;;;;;10.00;9.25;;;;;;;;5138228;27;9996;-86
2023/09/27 00:18:31;;;;;;;;;12.50;10.00;;;;;;;;5126007;27;8890;-87
2023/09/27 00:20:56;;;;;;;;;13.00;9.50;;;;;;;;5123312;27;8826;-86
2023/09/27 00:23:21;;;;;;;;;12.25;8.25;;;;;;;;5104006;28;8793;-87
2023/09/27 00:25:46;;;;;;;;;10.75;6.00;;;;;;;;5109114;28;8821;-86
2023/09/27 00:28:11;;;;;;;;;9.50;7.00;;;;;;;;5125427;28;8806;-85
2023/09/27 00:30:37;;;;;;;;;11.00;9.25;;;;;;;;5137013;27;8784;-86
2023/09/27 00:33:03;;;;;;;;;13.75;9.50;;;;;;;;5128550;27;8820;-87
2023/09/27 00:35:28;;;;;;;;;9.00;8.00;;;;;;;;5126495;28;8761;-87
2023/09/27 00:37:53;;;;;;;;;11.75;11.25;;;;;;;;5124101;28;8808;-86
2023/09/27 00:40:21;;;;;;;;;10.75;10.00;;;;;;;;5125890;28;8791;-86
2023/09/27 00:42:47;;;;;;;;;9.25;7.00;;;;;;;;5125947;27;8770;-86
2023/09/27 00:45:12;;;;;;;;;11.75;10.50;;;;;;;;5125730;27;10261;-86
2023/09/27 00:47:38;;;;;;;;;10.75;9.50;;;;;;;;5125524;27;10306;-86
2023/09/27 00:50:04;;;;;;;;;8.50;8.50;;;;;;;;5125810;27;8866;-87
2023/09/27 00:52:30;;;;;;;;;10.00;8.75;;;;;;;;5124178;28;8883;-86
2023/09/27 00:54:56;;;;;;;;;9.50;8.00;;;;;;;;5123907;28;10269;-86
2023/09/27 00:57:22;;;;;;;;;9.75;8.25;;;;;;;;5124133;28;8727;-86
2023/09/27 00:59:47;;;;;;;;;9.50;9.50;;;;;;;;5124367;28;10311;-86
2023/09/27 01:02:14;;;;;;;;;10.75;8.75;;;;;;;;5125146;27;8869;-86
2023/09/27 01:04:39;;;;;;;;;12.25;10.50;;;;;;;;5124178;28;10341;-86
2023/09/27 01:07:07;;;;;;;;;11.75;9.75;;;;;;;;5104415;28;10321;-86
2023/09/27 01:09:32;;;;;;;;;12.00;8.75;;;;;;;;5104975;28;8773;-86
2023/09/27 01:11:57;;;;;;;;;11.00;8.50;;;;;;;;5150271;27;10357;-86
2023/09/27 01:14:23;;;;;;;;;11.00;9.50;;;;;;;;5145923;27;8811;-86
2023/09/27 01:16:48;;;;;;;;;10.00;8.50;;;;;;;;5129209;27;8896;-86
2023/09/27 01:19:13;;;;;;;;;9.50;9.25;;;;;;;;5108638;27;8868;-86
2023/09/27 01:21:39;;;;;;;;;11.25;9.25;;;;;;;;5116140;27;8801;-86
2023/09/27 01:24:04;;;;;;;;;15.25;9.75;;;;;;;;5104349;28;8773;-86
2023/09/27 01:26:30;;;;;;;;;12.25;11.25;;;;;;;;5124095;27;8827;-86
2023/09/27 01:28:56;;;;;;;;;11.50;8.50;;;;;;;;5123769;28;9191;-86
2023/09/27 01:31:21;;;;;;;;;10.25;10.25;;;;;;;;5124658;28;10233;-86
2023/09/27 01:33:47;;;;;;;;;12.00;11.00;;;;;;;;5125232;28;8783;-86
2023/09/27 01:36:12;;;;;;;;;10.50;9.00;;;;;;;;5125145;28;10562;-86
2023/09/27 01:38:38;;;;;;;;;11.25;10.75;;;;;;;;5124179;27;8910;-85
2023/09/27 01:41:04;;;;;;;;;13.75;11.25;;;;;;;;5141844;27;8819;-86
2023/09/27 01:43:30;;;;;;;;;14.50;12.25;;;;;;;;5140112;27;10074;-86
2023/09/27 01:45:55;;;;;;;;;14.00;10.00;;;;;;;;5124306;27;9943;-86
2023/09/27 01:48:20;;;;;;;;;12.00;11.00;;;;;;;;5123225;28;8863;-86
2023/09/27 01:50:46;;;;;;;;;13.50;11.25;;;;;;;;5108634;28;8922;-86
2023/09/27 01:53:11;;;;;;;;;12.50;11.50;;;;;;;;5102870;28;10020;-86
2023/09/27 01:55:36;;;;;;;;;10.75;9.75;;;;;;;;5104091;28;8902;-86
2023/09/27 01:58:02;;;;;;;;;13.25;12.00;;;;;;;;5102855;28;8900;-86
2023/09/27 02:00:27;;;;;;;;;16.75;12.00;;;;;;;;5104106;28;8839;-86
2023/09/27 02:02:57;;;;;;;;;10.75;10.50;;;;;;;;5119700;28;10077;-86
2023/09/27 02:05:23;;;;;;;;;13.75;11.50;;;;;;;;5104385;28;8778;-86
2023/09/27 02:07:48;;;;;;;;;10.25;9.25;;;;;;;;5103504;28;10527;-86
2023/09/27 02:10:13;;;;;;;;;13.00;11.00;;;;;;;;5112443;27;8879;-85
2023/09/27 02:12:39;;;;;;;;;8.75;8.75;;;;;;;;5123146;28;10029;-85
2023/09/27 02:15:08;;;;;;;;;13.25;11.25;;;;;;;;5124091;27;8791;-86
2023/09/27 02:17:33;;;;;;;;;9.00;9.00;;;;;;;;5104468;27;8766;-86
2023/09/27 02:19:58;;;;;;;;;18.00;10.50;;;;;;;;5104130;28;10286;-86
2023/09/27 02:22:24;;;;;;;;;15.50;11.50;;;;;;;;5117660;28;10065;-85
2023/09/27 02:24:49;;;;;;;;;14.50;10.50;;;;;;;;5123652;27;8763;-86
2023/09/27 02:27:14;;;;;;;;;12.25;10.25;;;;;;;;5115880;28;8823;-85
2023/09/27 02:29:40;;;;;;;;;13.25;12.25;;;;;;;;5124198;27;8879;-86
2023/09/27 02:32:06;;;;;;;;;8.75;8.75;;;;;;;;5123683;28;8736;-85
2023/09/27 02:34:32;;;;;;;;;14.50;11.00;;;;;;;;5123347;27;10506;-85
2023/09/27 02:36:58;;;;;;;;;9.00;8.00;;;;;;;;5123835;27;8813;-85
2023/09/27 02:39:24;;;;;;;;;13.50;9.00;;;;;;;;5123774;27;10061;-86
2023/09/27 02:41:50;;;;;;;;;8.50;8.50;;;;;;;;5118669;28;10219;-86
2023/09/27 02:44:15;;;;;;;;;9.50;9.50;;;;;;;;5118470;28;10392;-86
2023/09/27 02:46:40;;;;;;;;;10.50;7.75;;;;;;;;5103387;28;8774;-86
2023/09/27 02:49:06;;;;;;;;;11.75;8.50;;;;;;;;5118739;27;8803;-86
2023/09/27 02:51:32;;;;;;;;;15.00;11.50;;;;;;;;5127480;27;9942;-85
2023/09/27 02:53:57;;;;;;;;;9.25;9.25;;;;;;;;5123478;27;8780;-86
2023/09/27 02:56:22;;;;;;;;;14.00;9.25;;;;;;;;5121750;28;8819;-86
2023/09/27 02:58:48;;;;;;;;;9.75;9.50;;;;;;;;5137253;27;8831;-86
2023/09/27 03:01:13;;;;;;;;;8.50;7.00;;;;;;;;5143015;27;10135;-86
2023/09/27 03:03:39;;;;;;;;;8.00;7.00;;;;;;;;5125598;27;8803;-86
2023/09/27 03:06:10;;;;;;;;;10.00;10.00;;;;;;;;5117231;28;9965;-86
2023/09/27 03:08:36;;;;;;;;;8.50;8.50;;;;;;;;5100869;28;10455;-86
2023/09/27 03:11:04;;;;;;;;;11.75;10.50;;;;;;;;5118624;27;10476;-86
2023/09/27 03:13:30;;;;;;;;;12.00;9.00;;;;;;;;5123202;27;8740;-86
2023/09/27 03:15:56;;;;;;;;;10.25;10.25;;;;;;;;5121930;28;10390;-85
2023/09/27 03:18:21;;;;;;;;;9.00;9.00;;;;;;;;5123257;27;8814;-86
2023/09/27 03:20:46;;;;;;;;;10.75;8.50;;;;;;;;5120212;28;10564;-85
2023/09/27 03:23:12;;;;;;;;;10.50;8.25;;;;;;;;5116296;28;8988;-86
2023/09/27 03:25:37;;;;;;;;;11.75;8.75;;;;;;;;5118718;27;8888;-85
2023/09/27 03:28:02;;;;;;;;;10.75;9.00;;;;;;;;5127822;27;9196;-86
2023/09/27 03:30:28;;;;;;;;;10.50;8.00;;;;;;;;5134868;27;10094;-86
2023/09/27 03:32:53;;;;;;;;;8.00;6.50;;;;;;;;5121453;28;8797;-86
2023/09/27 03:35:18;;;;;;;;;8.75;8.75;;;;;;;;5123123;28;8815;-86
2023/09/27 03:37:44;;;;;;;;;10.75;7.25;;;;;;;;5121201;28;9579;-86
2023/09/27 03:40:15;;;;;;;;;9.75;7.75;;;;;;;;5121573;28;10107;-85
2023/09/27 03:42:44;;;;;;;;;8.25;7.00;;;;;;;;5122608;28;8721;-85
2023/09/27 03:45:10;;;;;;;;;11.50;8.50;;;;;;;;5120406;28;10245;-86
2023/09/27 03:47:35;;;;;;;;;9.50;6.75;;;;;;;;5121304;28;10232;-86
2023/09/27 03:50:00;;;;;;;;;11.00;8.50;;;;;;;;5121370;28;9990;-86
2023/09/27 03:52:25;;;;;;;;;9.75;8.50;;;;;;;;5121398;28;8932;-85
2023/09/27 03:54:51;;;;;;;;;8.75;8.75;;;;;;;;5120812;28;8800;-85
2023/09/27 03:57:17;;;;;;;;;9.75;8.75;;;;;;;;5121525;28;8808;-86
2023/09/27 03:59:42;;;;;;;;;8.75;8.75;;;;;;;;5122969;27;8776;-86
2023/09/27 04:02:08;;;;;;;;;8.50;7.00;;;;;;;;5121395;28;10299;-86
2023/09/27 04:04:33;;;;;;;;;14.50;9.50;;;;;;;;5122789;28;8777;-86
2023/09/27 04:06:58;;;;;;;;;12.50;11.25;;;;;;;;5129998;27;8840;-86
2023/09/27 04:09:24;;;;;;;;;9.25;7.00;;;;;;;;5141561;27;10041;-85
2023/09/27 04:11:49;;;;;;;;;11.25;8.00;;;;;;;;5126609;27;8822;-85
2023/09/27 04:14:14;;;;;;;;;13.50;10.25;;;;;;;;5122483;27;8810;-85
2023/09/27 04:16:39;;;;;;;;;9.00;8.25;;;;;;;;5115066;28;8821;-85
2023/09/27 04:19:05;;;;;;;;;10.50;10.25;;;;;;;;5127999;27;8812;-86
2023/09/27 04:21:30;;;;;;;;;14.00;12.00;;;;;;;;5120232;27;8810;-85
2023/09/27 04:23:56;;;;;;;;;12.75;12.25;;;;;;;;5130757;27;8816;-85
2023/09/27 04:26:23;;;;;;;;;15.00;12.00;;;;;;;;5111466;28;8807;-85
2023/09/27 04:28:53;;;;;;;;;12.75;7.25;;;;;;;;5127249;27;8768;-85
2023/09/27 04:31:20;;;;;;;;;13.50;13.25;;;;;;;;5122382;27;10549;-85
2023/09/27 04:33:47;;;;;;;;;13.25;11.00;;;;;;;;5131936;27;10554;-85
2023/09/27 04:36:15;;;;;;;;;19.50;15.00;;;;;;;;5143147;27;10815;-85
2023/09/27 04:38:41;;;;;;;;;13.00;12.25;;;;;;;;5136500;27;10823;-85
2023/09/27 04:41:06;;;;;;;;;17.25;16.00;;;;;;;;5121074;28;10219;-85
2023/09/27 04:43:31;;;;;;;;;16.50;14.50;;;;;;;;5120789;27;8862;-85
2023/09/27 04:45:57;;;;;;;;;17.75;15.25;;;;;;;;5122411;27;8853;-85
2023/09/27 04:48:22;;;;;;;;;14.00;13.00;;;;;;;;5119212;27;8802;-85
2023/09/27 04:50:48;;;;;;;;;12.25;11.25;;;;;;;;5100566;28;8944;-85
2023/09/27 04:53:13;;;;;;;;;21.50;16.50;;;;;;;;5101263;28;8955;-85
2023/09/27 04:55:38;;;;;;;;;16.00;15.00;;;;;;;;5132892;27;8796;-85
2023/09/27 04:58:04;;;;;;;;;17.50;15.50;;;;;;;;5145844;27;8839;-85
2023/09/27 05:00:29;;;;;;;;;21.75;16.25;;;;;;;;5130158;27;8820;-85
2023/09/27 05:02:55;;;;;;;;;17.00;13.00;;;;;;;;5127178;27;8847;-85
2023/09/27 05:05:20;;;;;;;;;18.25;16.25;;;;;;;;5134996;27;9267;-79
2023/09/27 05:07:45;;;;;;;;;23.00;18.00;;;;;;;;5124259;27;9749;-82
2023/09/27 05:10:11;;;;;;;;;19.75;16.25;;;;;;;;5123662;28;8842;-79
2023/09/27 05:12:36;;;;;;;;;20.00;18.50;;;;;;;;5125085;27;8833;-76
2023/09/27 05:15:02;;;;;;;;;20.00;18.00;;;;;;;;5126987;27;8791;-77
2023/09/27 05:17:27;;;;;;;;;20.25;18.50;;;;;;;;5121074;27;8833;-76
2023/09/27 05:19:53;;;;;;;;;19.50;18.50;;;;;;;;5119342;27;8823;-76
2023/09/27 05:22:19;;;;;;;;;21.75;18.00;;;;;;;;5116989;27;8808;-76
2023/09/27 05:24:47;;;;;;;;;27.00;21.00;;;;;;;;5127736;27;8796;-78
2023/09/27 05:27:13;;;;;;;;;25.50;19.25;;;;;;;;5128296;27;10340;-74
2023/09/27 05:29:38;;;;;;;;;19.50;18.25;;;;;;;;5136121;27;10786;-78
2023/09/27 05:32:04;;;;;;;;;27.00;21.00;;;;;;;;5143929;27;10714;-77
2023/09/27 05:34:34;;;;;;;;;17.50;15.75;;;;;;;;5130038;27;8816;-78
2023/09/27 05:36:59;;;;;;;;;25.00;21.75;;;;;;;;5124842;27;10547;-77
2023/09/27 05:39:25;;;;;;;;;20.25;19.50;;;;;;;;5132680;27;10622;-76
2023/09/27 05:41:50;;;;;;;;;18.50;17.25;;;;;;;;5124850;27;8815;-77
2023/09/27 05:44:16;;;;;;;;;22.00;16.25;;;;;;;;5125763;27;8768;-77
2023/09/27 05:46:41;;;;;;;;;25.50;22.25;;;;;;;;5124899;27;10261;-77
2023/09/27 05:49:09;;;;;;;;;20.50;17.50;;;;;;;;5131251;27;11068;-77
2023/09/27 05:51:35;;;;;;;;;25.25;19.25;;;;;;;;5130908;27;8808;-83
2023/09/27 05:54:00;;;;;;;;;20.25;18.00;;;;;;;;5132187;27;10909;-82
2023/09/27 05:56:26;;;;;;;;;29.75;24.00;;;;;;;;5123477;27;8819;-82
2023/09/27 05:58:51;;;;;;;;;27.00;21.75;;;;;;;;5124286;27;8798;-82
2023/09/27 06:01:19;;;;;;;;;26.25;20.25;;;;;;;;5121723;28;11019;-83
2023/09/27 06:03:45;;;;;;;;;17.50;13.50;;;;;;;;5124294;27;8771;-81
2023/09/27 06:06:10;;;;;;;;;24.25;21.25;;;;;;;;5125022;27;10984;-81
2023/09/27 06:08:36;;;;;;;;;20.75;18.25;;;;;;;;5122077;27;11067;-81
2023/09/27 06:11:02;;;;;;;;;20.00;20.00;;;;;;;;5119487;28;10345;-82
2023/09/27 06:13:28;;;;;;;;;23.25;20.50;;;;;;;;5123413;27;8950;-81
2023/09/27 06:15:54;;;;;;;;;21.25;20.25;;;;;;;;5123884;27;11146;-81
2023/09/27 06:18:19;;;;;;;;;25.50;24.75;;;;;;;;5123521;27;8755;-82
2023/09/27 06:20:44;;;;;;;;;27.00;20.75;;;;;;;;5122787;27;11082;-81
2023/09/27 06:23:10;;;;;;;;;24.50;19.75;;;;;;;;5122165;28;8807;-82
2023/09/27 06:25:35;;;;;;;;;24.00;20.75;;;;;;;;5128284;27;10118;-83
2023/09/27 06:28:01;;;;;;;;;19.25;14.50;;;;;;;;5124102;27;8836;-83
2023/09/27 06:30:26;;;;;;;;;27.25;22.50;;;;;;;;5124425;27;8913;-83
2023/09/27 06:32:52;;;;;;;;;24.50;22.50;;;;;;;;5123614;27;8897;-83
2023/09/27 06:35:17;;;;;;;;;29.00;23.00;;;;;;;;5124258;27;8804;-83
2023/09/27 06:37:44;;;;;;;;;23.50;19.00;;;;;;;;5122250;27;8859;-82
2023/09/27 06:40:09;;;;;;;;;22.75;18.50;;;;;;;;5141635;27;8784;-81
2023/09/27 06:42:35;;;;;;;;;28.75;23.50;;;;;;;;5126231;27;10570;-82
2023/09/27 06:45:00;;;;;;;;;29.00;27.75;;;;;;;;5124591;27;8789;-83
2023/09/27 06:47:27;;;;;;;;;26.00;21.00;;;;;;;;5131072;27;9627;-80
2023/09/27 06:49:52;;;;;;;;;27.75;20.00;;;;;;;;5133339;27;8753;-81
2023/09/27 06:52:20;;;;;;;;;28.25;23.75;;;;;;;;5144593;27;11061;-83
2023/09/27 06:54:45;;;;;;;;;21.00;18.50;;;;;;;;5122255;27;11174;-83
2023/09/27 06:57:11;;;;;;;;;23.50;19.25;;;;;;;;5125938;27;10954;-84
2023/09/27 06:59:36;;;;;;;;;21.00;19.50;;;;;;;;5142756;27;8835;-82
2023/09/27 07:02:01;;;;;;;;;24.00;22.50;;;;;;;;5126373;27;8831;-83
2023/09/27 07:04:27;;;;;;;;;23.50;19.25;;;;;;;;5143998;27;8815;-83
2023/09/27 07:06:52;;;;;;;;;17.25;15.25;;;;;;;;5142504;27;9429;-84
2023/09/27 07:09:20;;;;;;;;;18.00;14.75;;;;;;;;5133514;27;8974;-83
2023/09/27 07:11:45;;;;;;;;;20.25;18.25;;;;;;;;5122273;27;8785;-83
2023/09/27 07:14:12;;;;;;;;;23.00;17.25;;;;;;;;5142529;27;10961;-82
2023/09/27 07:16:37;;;;;;;;;21.00;16.00;;;;;;;;5135596;27;8832;-83
2023/09/27 07:19:05;;;;;;;;;21.00;20.00;;;;;;;;5117880;28;10807;-82
2023/09/27 07:21:31;;;;;;;;;27.00;20.00;;;;;;;;5111759;27;8742;-82
2023/09/27 07:23:56;;;;;;;;;21.00;18.75;;;;;;;;5128110;27;10881;-83
2023/09/27 07:26:21;;;;;;;;;14.75;13.25;;;;;;;;5130835;27;8854;-84
2023/09/27 07:28:46;;;;;;;;;23.50;20.00;;;;;;;;5121292;27;9000;-82
2023/09/27 07:31:14;;;;;;;;;24.00;22.75;;;;;;;;5121999;27;8803;-82
2023/09/27 07:33:39;;;;;;;;;27.50;21.75;;;;;;;;5128796;27;8816;-83
2023/09/27 07:36:08;;;;;;;;;27.25;25.00;;;;;;;;5142268;27;10730;-83
2023/09/27 07:38:34;;;;;;;;;24.25;22.50;;;;;;;;5131979;27;8870;-82
2023/09/27 07:40:59;;;;;;;;;24.00;22.50;;;;;;;;5124625;27;10648;-82
2023/09/27 07:43:24;;;;;;;;;27.00;21.50;;;;;;;;5138509;27;8924;-82
2023/09/27 07:45:49;;;;;;;;;24.50;22.75;;;;;;;;5134229;27;8823;-83
2023/09/27 07:48:15;;;;;;;;;24.25;23.25;;;;;;;;5142910;27;8796;-82
2023/09/27 07:50:40;;;;;;;;;28.25;24.50;;;;;;;;5143829;27;9554;-82
2023/09/27 07:53:08;;;;;;;;;31.00;25.50;;;;;;;;5133195;27;8799;-82
2023/09/27 07:55:43;;;;;;;;;30.25;24.50;;;;;;;;5121711;27;8728;-82
2023/09/27 07:58:08;;;;;;;;;22.50;21.00;;;;;;;;5130458;27;10537;-83
2023/09/27 08:00:33;;;;;;;;;33.00;24.00;;;;;;;;5136832;27;10626;-83
2023/09/27 08:02:58;;;;;;;;;22.75;21.00;;;;;;;;5138951;27;10228;-83
2023/09/27 08:05:24;;;;;;;;;30.75;27.75;;;;;;;;5132512;27;8815;-83
2023/09/27 08:07:53;;;;;;;;;32.75;24.50;;;;;;;;5121585;27;8926;-82
2023/09/27 08:10:19;;;;;;;;;27.50;26.25;;;;;;;;5120388;28;8762;-84
2023/09/27 08:12:44;;;;;;;;;27.25;21.50;;;;;;;;5121533;28;10927;-83
2023/09/27 08:15:12;;;;;;;;;30.75;22.50;;;;;;;;5121486;27;8952;-84
2023/09/27 08:17:38;;;;;;;;;25.25;25.25;;;;;;;;5122096;27;8768;-80
2023/09/27 08:20:09;;;;;;;;;23.25;22.25;;;;;;;;5141502;27;10810;-83
2023/09/27 08:22:35;;;;;;;;;25.50;22.50;;;;;;;;5130936;27;8777;-84
2023/09/27 08:25:01;;;;;;;;;34.25;22.50;;;;;;;;5130454;27;10440;-84
2023/09/27 08:27:26;;;;;;;;;29.75;25.50;;;;;;;;5122145;27;10567;-84
2023/09/27 08:29:52;;;;;;;;;27.25;26.75;;;;;;;;5128790;27;8784;-84
2023/09/27 08:32:17;;;;;;;;;27.75;22.25;;;;;;;;5128885;27;10121;-84
2023/09/27 08:34:42;;;;;;;;;30.25;23.25;;;;;;;;5125840;27;8870;-84
2023/09/27 08:37:11;;;;;;;;;27.25;21.75;;;;;;;;5131298;27;8801;-84
2023/09/27 08:39:39;;;;;;;;;23.50;23.50;;;;;;;;5131955;27;8837;-83
2023/09/27 08:42:04;;;;;;;;;19.75;19.25;;;;;;;;5137543;27;10694;-84
2023/09/27 08:44:30;;;;;;;;;25.50;19.75;;;;;;;;5146571;27;10625;-84
2023/09/27 08:46:56;;;;;;;;;29.75;24.00;;;;;;;;5145227;27;8757;-84
2023/09/27 08:49:23;;;;;;;;;35.25;22.50;;;;;;;;5141632;27;10375;-84
2023/09/27 08:51:50;;;;;;;;;22.50;21.00;;;;;;;;5137655;27;10731;-84
2023/09/27 08:54:17;;;;;;;;;21.25;16.50;;;;;;;;5137881;27;10572;-85
2023/09/27 08:56:50;;;;;;;;;20.25;19.00;;;;;;;;5145343;27;10264;-84
2023/09/27 08:59:16;;;;;;;;;17.50;15.50;;;;;;;;5144380;27;10275;-78
2023/09/27 09:01:43;;;;;;;;;18.50;16.50;;;;;;;;5143030;27;10369;-83
2023/09/27 09:04:08;;;;;;;;;14.00;13.00;;;;;;;;5123745;27;8811;-83
2023/09/27 09:06:35;;;;;;;;;13.25;10.75;;;;;;;;5130760;27;9815;-84
2023/09/27 09:09:12;;;;;;;;;12.50;11.75;;;;;;;;5125774;27;8868;-84
2023/09/27 09:11:47;;;;;;;;;11.25;11.25;;;;;;;;5124618;27;9713;-84
2023/09/27 09:14:17;;;;;;;;;15.75;10.75;;;;;;;;5132965;27;9892;-83
2023/09/27 09:16:47;;;;;;;;;11.75;11.75;;;;;;;;5125551;27;9804;-84
2023/09/27 09:19:31;;;;;;;;;10.25;9.50;;;;;;;;5129536;27;9917;-85
2023/09/27 09:21:57;;;;;;;;;11.75;11.75;;;;;;;;5139405;27;10233;-85
2023/09/27 09:24:22;;;;;;;;;12.50;10.75;;;;;;;;5128271;27;10081;-84
2023/09/27 09:27:02;;;;;;;;;12.75;11.25;;;;;;;;5123482;27;8820;-85
2023/09/27 09:29:44;;;;;;;;;14.25;10.25;;;;;;;;5124936;27;8816;-84
2023/09/27 09:32:10;;;;;;;;;12.25;10.50;;;;;;;;5126799;27;9955;-85
2023/09/27 09:34:42;;;;;;;;;11.50;9.50;;;;;;;;5139458;27;9882;-85
2023/09/27 09:37:23;;;;;;;;;12.25;10.75;;;;;;;;5135841;27;8781;-83
2023/09/27 09:39:50;;;;;;;;;13.25;10.25;;;;;;;;5133399;27;9924;-84
2023/09/27 09:42:29;;;;;;;;;8.25;8.00;;;;;;;;5126693;27;10084;-85
2023/09/27 09:45:05;;;;;;;;;12.00;10.75;;;;;;;;5118268;27;9632;-85
2023/09/27 09:47:30;;;;;;;;;9.50;7.75;;;;;;;;5143019;27;9609;-85
2023/09/27 09:49:56;;;;;;;;;10.00;8.75;;;;;;;;5126247;27;9499;-84
2023/09/27 09:52:24;;;;;;;;;14.00;9.00;;;;;;;;5144341;27;8769;-85
2023/09/27 09:54:51;;;;;;;;;9.33;7.67;;;;;;;;5143249;27;8849;-85
2023/09/27 09:57:19;;;;;;;;;8.25;7.75;;;;;;;;5137936;27;9497;-81
2023/09/27 09:59:54;;;;;;;;;9.50;7.75;;;;;;;;5134921;27;9674;-85
2023/09/27 10:02:23;;;;;;;;;7.00;7.00;;;;;;;;5139847;27;9854;-85
2023/09/27 10:04:55;;;;;;;;;8.50;6.75;;;;;;;;5127265;27;9567;-85
2023/09/27 10:07:20;;;;;;;;;9.50;7.50;;;;;;;;5129002;27;9683;-84
2023/09/27 10:09:47;;;;;;;;;10.67;6.33;;;;;;;;5123274;27;9662;-83
2023/09/27 10:12:13;;;;;;;;;7.00;7.00;;;;;;;;5120375;28;10192;-85
2023/09/27 10:14:38;;;;;;;;;8.00;6.75;;;;;;;;5122651;27;9571;-85
2023/09/27 10:17:04;;;;;;;;;9.00;5.50;;;;;;;;5122044;27;9543;-85
2023/09/27 10:19:29;;;;;;;;;6.67;5.67;;;;;;;;5124867;27;8801;-83
2023/09/27 10:22:04;;;;;;;;;7.00;5.67;;;;;;;;5144411;27;8795;-82
2023/09/27 10:24:29;;;;;;;;;7.50;6.25;;;;;;;;5140747;27;8721;-78
2023/09/27 10:26:54;;;;;;;;;8.25;6.75;;;;;;;;5132266;27;9472;-83
2023/09/27 10:29:20;;;;;;;;;10.00;7.33;;;;;;;;5126079;27;8807;-84
2023/09/27 10:31:58;;;;;;;;;5.00;4.00;;;;;;;;5141661;27;8761;-80
2023/09/27 10:34:27;;;;;;;;;10.67;5.00;;;;;;;;5142906;27;9551;-76
2023/09/27 10:37:00;;;;;;;;;8.33;7.33;;;;;;;;5125445;27;9456;-76
2023/09/27 10:39:25;;;;;;;;;4.50;3.00;;;;;;;;5125267;27;9506;-81
2023/09/27 10:41:51;;;;;;;;;9.25;5.25;;;;;;;;5124296;27;9793;-75
2023/09/27 10:44:33;;;;;;;;;6.00;6.00;;;;;;;;5124950;27;8800;-75
2023/09/27 10:46:58;;;;;;;;;8.67;8.67;;;;;;;;5128705;27;8764;-77
2023/09/27 10:49:29;;;;;;;;;6.67;5.33;;;;;;;;5133821;27;9532;-82
2023/09/27 10:51:55;;;;;;;;;9.33;6.00;;;;;;;;5123619;27;11416;-76
2023/09/27 10:54:22;;;;;;;;;8.33;6.67;;;;;;;;5122674;27;9455;-76
2023/09/27 10:56:52;;;;;;;;;7.00;5.00;;;;;;;;5136332;27;8733;-80
2023/09/27 10:59:27;;;;;;;;;7.67;5.67;;;;;;;;5129724;27;9348;-83
2023/09/27 11:01:53;;;;;;;;;6.33;5.33;;;;;;;;5121784;27;9481;-80
2023/09/27 11:04:22;;;;;;;;;6.67;5.67;;;;;;;;5124271;27;9327;-79
2023/09/27 11:06:49;;;;;;;;;5.00;5.00;;;;;;;;5128354;27;9142;-77
2023/09/27 11:09:16;;;;;;;;;5.00;5.00;;;;;;;;5121143;27;10228;-78
2023/09/27 11:11:43;;;;;;;;;9.33;7.33;;;;;;;;5123341;27;10344;-79
2023/09/27 11:14:09;;;;;;;;;36.25;33.00;;;;;;;;5123312;27;9315;-74
2023/09/27 11:16:34;;;;;;;;;55.00;42.00;;;;;;;;5123061;28;10701;-77
2023/09/27 11:18:59;;;;;;;;;6.00;5.00;;;;;;;;5122605;27;8866;-80
2023/09/27 11:21:26;;;;;;;;;9.00;9.00;;;;;;;;5123405;28;8844;-81
2023/09/27 11:23:58;;;;;;;;;6.33;6.33;;;;;;;;5128792;27;8785;-80
2023/09/27 11:26:24;;;;;;;;;7.00;7.00;;;;;;;;5125090;27;9206;-78
2023/09/27 11:29:00;;;;;;;;;7.00;6.33;;;;;;;;5133614;27;9176;-79
2023/09/27 11:31:27;;;;;;;;;8.00;7.00;;;;;;;;5138336;27;9423;-78
2023/09/27 11:33:52;;;;;;;;;8.33;7.00;;;;;;;;5127681;27;9253;-78
2023/09/27 11:36:18;;;;;;;;;5.67;5.67;;;;;;;;5126327;27;9183;-83
2023/09/27 11:38:50;;;;;;;;;6.67;6.00;;;;;;;;5126354;27;8925;-82
2023/09/27 11:41:17;;;;;;;;;7.33;5.67;;;;;;;;5123657;27;8787;-81
2023/09/27 11:43:44;;;;;;;;;6.00;5.00;;;;;;;;5125786;27;8818;-82
2023/09/27 11:46:09;;;;;;;;;8.33;5.00;;;;;;;;5123406;27;9013;-81
2023/09/27 11:48:34;;;;;;;;;6.33;5.33;;;;;;;;5121623;27;9161;-82
2023/09/27 11:51:00;;;;;;;;;4.67;3.67;;;;;;;;5122727;27;8782;-82
2023/09/27 11:53:26;;;;;;;;;6.33;6.33;;;;;;;;5122486;27;8776;-81
2023/09/27 11:55:51;;;;;;;;;4.33;4.33;;;;;;;;5123689;27;11419;-82
2023/09/27 11:58:16;;;;;;;;;5.00;5.00;;;;;;;;5124822;27;8823;-82
2023/09/27 12:00:42;;;;;;;;;5.67;5.67;;;;;;;;5121569;27;10089;-82
2023/09/27 12:03:07;;;;;;;;;4.67;3.67;;;;;;;;5122174;27;8771;-82
2023/09/27 12:05:37;;;;;;;;;4.33;4.33;;;;;;;;5138267;27;8807;-82
2023/09/27 12:08:02;;;;;;;;;7.67;5.67;;;;;;;;5141160;27;8744;-82
2023/09/27 12:10:31;;;;;;;;;6.33;4.33;;;;;;;;5138693;27;9036;-82
2023/09/27 12:12:56;;;;;;;;;5.25;4.00;;;;;;;;5121164;27;8779;-82
2023/09/27 12:15:21;;;;;;;;;4.67;4.67;;;;;;;;5127040;27;9770;-82
2023/09/27 12:17:47;;;;;;;;;4.67;3.33;;;;;;;;5120356;27;8921;-83
2023/09/27 12:20:15;;;;;;;;;4.33;3.67;;;;;;;;5124161;27;8902;-81
2023/09/27 12:22:40;;;;;;;;;3.25;2.75;;;;;;;;5119708;27;8804;-82
2023/09/27 12:25:06;;;;;;;;;5.00;4.00;;;;;;;;5126112;27;8859;-81
2023/09/27 12:27:33;;;;;;;;;5.33;5.00;;;;;;;;5125152;27;8753;-82
2023/09/27 12:30:00;;;;;;;;;8.50;5.00;;;;;;;;5117754;27;9698;-81
2023/09/27 12:32:25;;;;;;;;;3.50;2.75;;;;;;;;5122477;27;8927;-81
2023/09/27 12:34:51;;;;;;;;;5.33;4.33;;;;;;;;5124069;27;8810;-82
2023/09/27 12:37:17;;;;;;;;;4.00;4.00;;;;;;;;5120478;27;8796;-82
2023/09/27 12:39:42;;;;;;;;;5.00;3.00;;;;;;;;5120266;27;8795;-80
2023/09/27 12:42:08;;;;;;;;;3.00;3.00;;;;;;;;5122412;27;9642;-82
2023/09/27 12:44:33;;;;;;;;;6.67;3.67;;;;;;;;5125105;27;8795;-82
2023/09/27 12:46:58;;;;;;;;;7.33;5.00;;;;;;;;5124833;27;8791;-80
2023/09/27 12:49:25;;;;;;;;;2.00;2.00;;;;;;;;5119497;27;8873;-80
2023/09/27 12:51:50;;;;;;;;;4.00;3.00;;;;;;;;5124805;27;8724;-80
2023/09/27 12:54:16;;;;;;;;;2.00;2.00;;;;;;;;5120014;27;8876;-83
2023/09/27 12:56:42;;;;;;;;;4.00;2.67;;;;;;;;5115394;27;8823;-82
2023/09/27 12:59:08;;;;;;;;;10.00;4.25;;;;;;;;5120091;27;10260;-81
2023/09/27 13:01:33;;;;;;;;;4.00;4.00;;;;;;;;5123906;27;8781;-82
2023/09/27 13:03:58;;;;;;;;;5.00;5.00;;;;;;;;5124978;27;8916;-81
2023/09/27 13:06:24;;;;;;;;;6.33;4.00;;;;;;;;5127623;27;8904;-82
2023/09/27 13:08:49;;;;;;;;;2.67;2.67;;;;;;;;5124284;27;9057;-81
2023/09/27 13:11:14;;;;;;;;;4.33;3.33;;;;;;;;5134270;27;8812;-82
2023/09/27 13:13:40;;;;;;;;;2.00;2.00;;;;;;;;5136159;27;9058;-82
2023/09/27 13:16:05;;;;;;;;;5.33;4.33;;;;;;;;5121753;27;8826;-81
2023/09/27 13:18:31;;;;;;;;;3.50;3.50;;;;;;;;5134625;27;9070;-81
2023/09/27 13:20:56;;;;;;;;;4.00;4.00;;;;;;;;5133239;27;8773;-82
2023/09/27 13:23:22;;;;;;;;;3.00;3.00;;;;;;;;5139188;27;8911;-81
2023/09/27 13:25:51;;;;;;;;;4.00;3.00;;;;;;;;5125403;27;8923;-82
2023/09/27 13:28:16;;;;;;;;;3.00;3.00;;;;;;;;5131435;27;8889;-82
2023/09/27 13:30:41;;;;;;;;;3.00;2.00;;;;;;;;5129400;27;8813;-82
2023/09/27 13:33:07;;;;;;;;;4.67;3.00;;;;;;;;5133323;27;8824;-82
2023/09/27 13:35:32;;;;;;;;;4.33;4.33;;;;;;;;5140721;27;8811;-82
2023/09/27 13:37:57;;;;;;;;;4.00;2.00;;;;;;;;5124340;27;9173;-82
2023/09/27 13:40:22;;;;;;;;;3.67;2.67;;;;;;;;5125048;27;8971;-82
2023/09/27 13:42:47;;;;;;;;;6.00;4.33;;;;;;;;5122769;27;8785;-82
2023/09/27 13:45:13;;;;;;;;;6.00;3.00;;;;;;;;5139504;27;8811;-82
2023/09/27 13:47:38;;;;;;;;;5.33;3.33;;;;;;;;5131749;27;8908;-82
2023/09/27 13:50:05;;;;;;;;;1.67;1.67;;;;;;;;5139244;27;8808;-82
2023/09/27 13:52:31;;;;;;;;;4.00;2.50;;;;;;;;5126930;27;8781;-82
2023/09/27 13:54:57;;;;;;;;;2.00;2.00;;;;;;;;5143845;27;8871;-82
2023/09/27 13:57:22;;;;;;;;;2.33;2.33;;;;;;;;5138524;27;8800;-82
2023/09/27 13:59:47;;;;;;;;;2.00;2.00;;;;;;;;5135471;27;8805;-83
2023/09/27 14:02:14;;;;;;;;;2.67;2.67;;;;;;;;5142232;27;8797;-83
2023/09/27 14:04:40;;;;;;;;;2.25;1.50;;;;;;;;5140965;27;8785;-82
2023/09/27 14:07:05;;;;;;;;;2.67;1.33;;;;;;;;5143591;27;10299;-83
2023/09/27 14:09:30;;;;;;;;;2.00;2.00;;;;;;;;5143222;27;9009;-82
2023/09/27 14:11:55;;;;;;;;;3.67;2.33;;;;;;;;5145093;27;8789;-82
2023/09/27 14:14:21;;;;;;;;;5.33;2.00;;;;;;;;5144868;27;8801;-83
2023/09/27 14:16:47;;;;;;;;;1.00;1.00;;;;;;;;5130490;27;8881;-83
2023/09/27 14:19:15;;;;;;;;;2.00;2.00;;;;;;;;5135297;27;8780;-83
2023/09/27 14:21:41;;;;;;;;;2.00;1.00;;;;;;;;5128947;27;8971;-82
2023/09/27 14:24:06;;;;;;;;;2.00;2.00;;;;;;;;5125003;27;9048;-82
2023/09/27 14:26:32;;;;;;;;;2.00;2.00;;;;;;;;5124143;27;8843;-84
2023/09/27 14:28:57;;;;;;;;;1.67;1.67;;;;;;;;5143991;27;8809;-83
2023/09/27 14:31:27;;;;;;;;;2.33;1.33;;;;;;;;5112131;27;8801;-82
2023/09/27 14:33:55;;;;;;;;;4.33;4.33;;;;;;;;5134474;27;8870;-84